Time;durP1;ratioP1;P1;durP2;ratioP2;P2;SDS_P1;SDS_P2;PMS_P1;PMS_P2;Temp;Humidity;BMP_temperature;BMP_pressure;BME280_temperature;BME280_humidity;BME280_pressure;Samples;Min_cycle;Max_cycle;Signal;HPM_P1;HPM_P2
2021/03/29 00:00:43;;;;;;;4.07;2.53;;;;;;;;;;5079947;28;20223;-81
2021/03/29 00:03:11;;;;;;;5.00;2.20;;;;;;;;;;5073367;28;20217;-83
2021/03/29 00:05:40;;;;;;;4.70;2.80;;;;;;;;;;5074039;28;20236;-81
2021/03/29 00:08:09;;;;;;;4.97;2.40;;;;;;;;;;5092328;28;20241;-84
2021/03/29 00:10:38;;;;;;;4.63;2.30;;;;;;;;;;5073817;28;20235;-82
2021/03/29 00:13:06;;;;;;;4.47;2.60;;;;;;;;;;5068088;28;20264;-80
2021/03/29 00:15:37;;;;;;;3.10;2.23;;;;;;;;;;5072480;28;20616;-80
2021/03/29 00:18:07;;;;;;;4.77;2.53;;;;;;;;;;5085621;28;20243;-80
2021/03/29 00:20:37;;;;;;;2.97;2.13;;;;;;;;;;5089340;28;20227;-81
2021/03/29 00:23:05;;;;;;;4.43;2.27;;;;;;;;;;5089282;28;20237;-80
2021/03/29 00:25:33;;;;;;;4.37;2.70;;;;;;;;;;5077403;28;20222;-82
2021/03/29 00:28:02;;;;;;;4.07;2.40;;;;;;;;;;5081247;28;20240;-80
2021/03/29 00:30:31;;;;;;;5.00;2.37;;;;;;;;;;5082078;28;20638;-79
2021/03/29 00:33:00;;;;;;;7.43;2.17;;;;;;;;;;5081069;28;20227;-80
2021/03/29 00:35:29;;;;;;;6.37;3.10;;;;;;;;;;5081290;28;20235;-79
2021/03/29 00:37:58;;;;;;;3.27;2.17;;;;;;;;;;5078518;28;20229;-83
2021/03/29 00:40:27;;;;;;;2.83;2.40;;;;;;;;;;5086098;28;20235;-80
2021/03/29 00:42:57;;;;;;;4.77;2.57;;;;;;;;;;5079951;28;20230;-84
2021/03/29 00:45:25;;;;;;;4.40;2.50;;;;;;;;;;5102851;28;20231;-86
2021/03/29 00:47:53;;;;;;;4.23;2.30;;;;;;;;;;5093438;28;20742;-78
2021/03/29 00:50:28;;;;;;;3.67;2.40;;;;;;;;;;5086800;28;20216;-79
2021/03/29 00:53:01;;;;;;;4.80;2.07;;;;;;;;;;5080884;28;20228;-80
2021/03/29 00:55:29;;;;;;;3.43;2.03;;;;;;;;;;5085239;28;20227;-79
2021/03/29 00:57:58;;;;;;;5.60;2.47;;;;;;;;;;5088197;28;20226;-79
2021/03/29 01:00:29;;;;;;;4.10;2.20;;;;;;;;;;5079608;28;20242;-83
2021/03/29 01:02:57;;;;;;;3.07;2.20;;;;;;;;;;5087236;28;20232;-79
2021/03/29 01:05:25;;;;;;;5.03;2.33;;;;;;;;;;5084164;28;20239;-79
2021/03/29 01:07:53;;;;;;;5.67;2.23;;;;;;;;;;5080936;28;20505;-83
2021/03/29 01:10:22;;;;;;;3.37;2.30;;;;;;;;;;5082001;28;20208;-80
2021/03/29 01:12:51;;;;;;;4.23;2.47;;;;;;;;;;5100030;28;20243;-79
2021/03/29 01:15:22;;;;;;;5.60;2.20;;;;;;;;;;5092995;28;20228;-84
2021/03/29 01:17:50;;;;;;;3.00;2.20;;;;;;;;;;5101285;28;20219;-79
2021/03/29 01:20:29;;;;;;;5.47;2.77;;;;;;;;;;5102866;28;20240;-79
2021/03/29 01:22:57;;;;;;;5.03;2.13;;;;;;;;;;5067412;28;20270;-78
2021/03/29 01:25:29;;;;;;;5.40;2.30;;;;;;;;;;5070981;28;20240;-79
2021/03/29 01:28:00;;;;;;;3.20;2.30;;;;;;;;;;5062140;28;20235;-80
2021/03/29 01:30:31;;;;;;;3.93;2.50;;;;;;;;;;5082426;28;20235;-80
2021/03/29 01:33:00;;;;;;;3.77;2.60;;;;;;;;;;5085761;28;20227;-79
2021/03/29 01:35:30;;;;;;;3.70;2.23;;;;;;;;;;5094595;28;20231;-79
2021/03/29 01:37:59;;;;;;;3.63;2.23;;;;;;;;;;5078727;28;20708;-80
2021/03/29 01:40:27;;;;;;;4.13;2.50;;;;;;;;;;5069241;28;20234;-82
2021/03/29 01:42:55;;;;;;;3.80;2.50;;;;;;;;;;5073266;28;20231;-80
2021/03/29 01:45:25;;;;;;;3.70;2.23;;;;;;;;;;5069965;28;20251;-80
2021/03/29 01:47:52;;;;;;;4.43;2.60;;;;;;;;;;5063195;28;20235;-80
2021/03/29 01:50:23;;;;;;;3.30;2.67;;;;;;;;;;5059451;28;20238;-80
2021/03/29 01:52:52;;;;;;;4.63;2.90;;;;;;;;;;5056459;28;20220;-80
2021/03/29 01:55:20;;;;;;;3.20;2.60;;;;;;;;;;5075019;28;20241;-79
2021/03/29 01:57:47;;;;;;;4.10;3.00;;;;;;;;;;5087470;28;20238;-79
2021/03/29 02:00:18;;;;;;;4.60;3.13;;;;;;;;;;5072851;28;20230;-81
2021/03/29 02:02:47;;;;;;;3.90;2.73;;;;;;;;;;5090663;28;20224;-79
2021/03/29 02:05:17;;;;;;;4.93;2.83;;;;;;;;;;5076634;28;20234;-83
2021/03/29 02:07:45;;;;;;;3.47;2.80;;;;;;;;;;5086324;28;20731;-81
2021/03/29 02:10:15;;;;;;;4.97;3.03;;;;;;;;;;5091643;28;20230;-79
2021/03/29 02:12:43;;;;;;;3.50;2.83;;;;;;;;;;5093741;28;20504;-82
2021/03/29 02:15:12;;;;;;;2.73;2.47;;;;;;;;;;5076022;28;20226;-79
2021/03/29 02:17:41;;;;;;;4.23;2.97;;;;;;;;;;5096822;28;20242;-79
2021/03/29 02:20:13;;;;;;;3.57;2.80;;;;;;;;;;5112468;28;20230;-83
2021/03/29 02:22:43;;;;;;;3.13;2.63;;;;;;;;;;5098243;28;20246;-81
2021/03/29 02:25:11;;;;;;;6.50;2.90;;;;;;;;;;5092352;28;20245;-80
2021/03/29 02:27:39;;;;;;;5.23;3.40;;;;;;;;;;5077589;28;22646;-78
2021/03/29 02:30:10;;;;;;;4.00;3.33;;;;;;;;;;5092991;28;20237;-80
2021/03/29 02:32:40;;;;;;;4.47;2.93;;;;;;;;;;5095419;28;20426;-79
2021/03/29 02:35:09;;;;;;;9.70;3.30;;;;;;;;;;5098871;28;20234;-79
2021/03/29 02:37:40;;;;;;;4.60;2.87;;;;;;;;;;5096498;28;20640;-80
2021/03/29 02:40:09;;;;;;;4.47;3.00;;;;;;;;;;5112693;27;20240;-80
2021/03/29 02:42:37;;;;;;;3.60;2.90;;;;;;;;;;5094834;28;20222;-79
2021/03/29 02:45:06;;;;;;;4.33;3.07;;;;;;;;;;5102617;28;20666;-79
2021/03/29 02:47:34;;;;;;;4.40;3.47;;;;;;;;;;5094982;28;20241;-79
2021/03/29 02:50:01;;;;;;;6.87;3.10;;;;;;;;;;5089342;28;20229;-79
2021/03/29 02:52:29;;;;;;;4.30;2.83;;;;;;;;;;5111902;28;20226;-80
2021/03/29 02:54:58;;;;;;;6.63;3.40;;;;;;;;;;5078137;28;20224;-78
2021/03/29 02:57:27;;;;;;;3.83;2.93;;;;;;;;;;5066001;28;20249;-79
2021/03/29 02:59:55;;;;;;;5.37;3.40;;;;;;;;;;5085379;28;20248;-84
2021/03/29 03:02:23;;;;;;;4.60;3.27;;;;;;;;;;5081167;28;20746;-80
2021/03/29 03:04:51;;;;;;;3.83;3.23;;;;;;;;;;5069456;28;20218;-79
2021/03/29 03:07:18;;;;;;;5.00;3.30;;;;;;;;;;5057554;28;20230;-79
2021/03/29 03:09:47;;;;;;;4.77;3.60;;;;;;;;;;5082356;28;20237;-80
2021/03/29 03:12:15;;;;;;;4.83;3.67;;;;;;;;;;5093214;28;20431;-79
2021/03/29 03:14:43;;;;;;;7.57;3.70;;;;;;;;;;5094377;28;20237;-78
2021/03/29 03:17:10;;;;;;;5.90;4.10;;;;;;;;;;5076186;28;20234;-79
2021/03/29 03:19:38;;;;;;;4.83;3.57;;;;;;;;;;5061357;28;20584;-79
2021/03/29 03:22:11;;;;;;;4.83;3.87;;;;;;;;;;5052151;28;20234;-79
2021/03/29 03:24:39;;;;;;;4.43;4.00;;;;;;;;;;5061828;28;20219;-80
2021/03/29 03:27:08;;;;;;;5.80;4.00;;;;;;;;;;5067389;28;20245;-81
2021/03/29 03:29:39;;;;;;;6.33;4.00;;;;;;;;;;5085363;28;20225;-80
2021/03/29 03:32:12;;;;;;;7.67;4.23;;;;;;;;;;5057046;28;20231;-79
2021/03/29 03:34:40;;;;;;;4.77;4.00;;;;;;;;;;5059758;28;20224;-80
2021/03/29 03:37:16;;;;;;;5.53;4.30;;;;;;;;;;5086379;28;20231;-82
2021/03/29 03:39:44;;;;;;;6.63;4.47;;;;;;;;;;5082801;28;20229;-83
2021/03/29 03:42:13;;;;;;;5.90;4.27;;;;;;;;;;5072171;28;20231;-80
2021/03/29 03:44:45;;;;;;;5.77;4.37;;;;;;;;;;5048669;28;20222;-86
2021/03/29 03:47:13;;;;;;;5.73;4.03;;;;;;;;;;5074483;28;20241;-79
2021/03/29 03:49:41;;;;;;;7.00;4.33;;;;;;;;;;5067426;28;20225;-79
2021/03/29 03:52:09;;;;;;;6.43;4.17;;;;;;;;;;5081460;28;20236;-79
2021/03/29 03:54:39;;;;;;;4.93;4.20;;;;;;;;;;5075444;28;20222;-80
2021/03/29 03:57:07;;;;;;;4.40;4.00;;;;;;;;;;5092536;28;20238;-80
2021/03/29 03:59:35;;;;;;;5.70;4.00;;;;;;;;;;5071837;28;21264;-78
2021/03/29 04:02:06;;;;;;;5.60;4.10;;;;;;;;;;5077021;28;20241;-80
2021/03/29 04:04:34;;;;;;;4.97;3.67;;;;;;;;;;5075611;28;20736;-80
2021/03/29 04:07:02;;;;;;;5.57;3.53;;;;;;;;;;5062354;28;20238;-83
2021/03/29 04:09:43;;;;;;;5.73;4.07;;;;;;;;;;5091958;28;20710;-79
2021/03/29 04:12:11;;;;;;;5.07;4.13;;;;;;;;;;5077932;28;20230;-78
2021/03/29 04:14:40;;;;;;;7.07;4.50;;;;;;;;;;5089815;28;20222;-79
2021/03/29 04:17:08;;;;;;;5.87;4.37;;;;;;;;;;5087810;28;20234;-79
2021/03/29 04:19:35;;;;;;;5.87;4.00;;;;;;;;;;5078517;28;20554;-79
2021/03/29 04:22:04;;;;;;;5.93;3.90;;;;;;;;;;5081319;28;20226;-80
2021/03/29 04:24:32;;;;;;;5.40;4.43;;;;;;;;;;5097176;28;20232;-79
2021/03/29 04:27:00;;;;;;;5.73;4.67;;;;;;;;;;5070417;28;20232;-80
2021/03/29 04:29:28;;;;;;;5.43;4.33;;;;;;;;;;5090616;28;20229;-81
2021/03/29 04:31:55;;;;;;;5.87;4.37;;;;;;;;;;5068085;28;20232;-79
2021/03/29 04:34:24;;;;;;;6.50;4.37;;;;;;;;;;5085484;28;20735;-79
2021/03/29 04:36:52;;;;;;;6.03;4.00;;;;;;;;;;5093882;28;20253;-79
2021/03/29 04:39:20;;;;;;;8.43;4.67;;;;;;;;;;5096696;28;20218;-79
2021/03/29 04:41:47;;;;;;;5.47;4.57;;;;;;;;;;5082783;28;20230;-79
2021/03/29 04:44:15;;;;;;;5.73;4.30;;;;;;;;;;5084308;28;20229;-79
2021/03/29 04:46:43;;;;;;;5.83;4.27;;;;;;;;;;5090731;28;20722;-81
2021/03/29 04:49:10;;;;;;;6.07;4.83;;;;;;;;;;5094899;28;20237;-80
2021/03/29 04:51:39;;;;;;;5.63;4.30;;;;;;;;;;5077490;28;20233;-79
2021/03/29 04:54:07;;;;;;;7.23;4.70;;;;;;;;;;5072539;28;20245;-78
2021/03/29 04:56:35;;;;;;;7.80;4.77;;;;;;;;;;5086900;28;20222;-79
2021/03/29 04:59:03;;;;;;;6.20;4.30;;;;;;;;;;5061977;28;20229;-79
2021/03/29 05:01:31;;;;;;;9.80;4.57;;;;;;;;;;5082992;28;20239;-83
2021/03/29 05:03:59;;;;;;;8.57;4.67;;;;;;;;;;5089311;28;20226;-80
2021/03/29 05:06:29;;;;;;;7.13;4.80;;;;;;;;;;5094666;28;20240;-80
2021/03/29 05:08:58;;;;;;;9.57;5.30;;;;;;;;;;5085488;28;20226;-80
2021/03/29 05:11:33;;;;;;;8.90;5.83;;;;;;;;;;5081091;28;20234;-81
2021/03/29 05:14:00;;;;;;;8.63;5.33;;;;;;;;;;5110241;28;20232;-80
2021/03/29 05:16:28;;;;;;;8.70;5.07;;;;;;;;;;5080978;28;20241;-78
2021/03/29 05:18:55;;;;;;;9.73;5.57;;;;;;;;;;5068828;28;20807;-79
2021/03/29 05:21:24;;;;;;;10.87;5.30;;;;;;;;;;5095973;28;20241;-79
2021/03/29 05:23:52;;;;;;;8.97;5.07;;;;;;;;;;5075299;28;20226;-81
2021/03/29 05:26:20;;;;;;;7.03;4.53;;;;;;;;;;5084312;28;20234;-79
2021/03/29 05:28:48;;;;;;;7.20;4.50;;;;;;;;;;5090447;28;20222;-83
2021/03/29 05:37:29;;;;;;;6.13;4.47;;;;;;;;;;4925372;28;20239;-81
2021/03/29 05:39:59;;;;;;;9.90;4.80;;;;;;;;;;4920821;29;20239;-81
2021/03/29 05:42:31;;;;;;;7.20;5.00;;;;;;;;;;4902437;29;20240;-81
2021/03/29 05:45:06;;;;;;;5.40;4.33;;;;;;;;;;4894425;29;20240;-82
2021/03/29 05:47:34;;;;;;;6.43;4.20;;;;;;;;;;4918336;29;20760;-80
2021/03/29 05:50:03;;;;;;;7.60;4.20;;;;;;;;;;4913856;29;20244;-81
2021/03/29 05:52:31;;;;;;;8.23;4.60;;;;;;;;;;4905686;29;20589;-80
2021/03/29 05:54:59;;;;;;;6.63;5.23;;;;;;;;;;4898295;28;20239;-81
2021/03/29 05:57:38;;;;;;;10.33;4.60;;;;;;;;;;4917239;28;20231;-80
2021/03/29 06:00:32;;;;;;;7.07;4.10;;;;;;;;;;4932263;28;20239;-82
2021/03/29 06:03:18;;;;;;;5.90;4.50;;;;;;;;;;4906087;29;20228;-80
2021/03/29 06:05:46;;;;;;;6.83;4.70;;;;;;;;;;4897255;29;20244;-80
2021/03/29 06:08:14;;;;;;;5.93;4.80;;;;;;;;;;4894331;29;20240;-80
2021/03/29 06:10:44;;;;;;;5.77;4.10;;;;;;;;;;4907500;28;20231;-78
2021/03/29 06:13:17;;;;;;;10.63;5.10;;;;;;;;;;4919738;28;20237;-80
2021/03/29 06:15:46;;;;;;;10.97;4.30;;;;;;;;;;4934672;28;20227;-80
2021/03/29 06:18:15;;;;;;;7.17;4.33;;;;;;;;;;4934717;29;20241;-82
2021/03/29 06:21:03;;;;;;;6.63;4.77;;;;;;;;;;4885620;29;20236;-79
2021/03/29 06:23:31;;;;;;;7.70;4.40;;;;;;;;;;4888913;29;20233;-82
2021/03/29 06:26:19;;;;;;;8.17;5.17;;;;;;;;;;4895048;29;20239;-81
2021/03/29 06:28:48;;;;;;;7.87;4.93;;;;;;;;;;4925362;28;20261;-80
2021/03/29 06:31:26;;;;;;;8.27;4.87;;;;;;;;;;4910827;29;20221;-80
2021/03/29 06:33:54;;;;;;;9.27;3.97;;;;;;;;;;4911540;28;20243;-80
2021/03/29 06:36:30;;;;;;;8.07;3.97;;;;;;;;;;4904091;28;20224;-81
2021/03/29 06:39:16;;;;;;;7.23;3.70;;;;;;;;;;4927362;28;20232;-80
2021/03/29 06:41:52;;;;;;;8.33;3.50;;;;;;;;;;4926179;28;20233;-80
2021/03/29 06:44:25;;;;;;;4.10;3.10;;;;;;;;;;4921834;29;20717;-84
2021/03/29 06:47:04;;;;;;;5.67;3.07;;;;;;;;;;4921575;28;20224;-82
2021/03/29 06:49:40;;;;;;;4.47;3.17;;;;;;;;;;4921566;29;20229;-83
2021/03/29 06:52:21;;;;;;;4.83;2.60;;;;;;;;;;4920121;29;20237;-82
2021/03/29 06:54:49;;;;;;;3.43;2.47;;;;;;;;;;4883494;28;20266;-84
2021/03/29 06:57:27;;;;;;;7.30;2.60;;;;;;;;;;4917106;28;21740;-80
2021/03/29 06:59:56;;;;;;;3.90;2.43;;;;;;;;;;4909378;28;20763;-82
2021/03/29 07:02:37;;;;;;;4.67;2.40;;;;;;;;;;4903116;29;20228;-82
2021/03/29 07:05:06;;;;;;;3.17;2.50;;;;;;;;;;4910915;29;20245;-83
2021/03/29 07:07:44;;;;;;;4.83;2.40;;;;;;;;;;4912391;28;20256;-81
2021/03/29 07:10:13;;;;;;;5.57;2.17;;;;;;;;;;4893143;29;20229;-81
2021/03/29 07:12:43;;;;;;;5.03;2.20;;;;;;;;;;4894821;29;20222;-81
2021/03/29 07:15:13;;;;;;;4.50;2.60;;;;;;;;;;4895230;29;20587;-81
2021/03/29 07:17:41;;;;;;;2.20;1.90;;;;;;;;;;4925824;28;20226;-81
2021/03/29 07:20:11;;;;;;;3.40;1.90;;;;;;;;;;4904734;29;20245;-81
2021/03/29 07:22:40;;;;;;;2.13;1.93;;;;;;;;;;4897356;29;20236;-81
2021/03/29 07:25:09;;;;;;;3.77;2.17;;;;;;;;;;4897175;29;20229;-82
2021/03/29 07:27:43;;;;;;;7.53;2.23;;;;;;;;;;4925057;28;20615;-80
2021/03/29 07:30:16;;;;;;;4.87;2.17;;;;;;;;;;4905511;29;20234;-80
2021/03/29 07:32:53;;;;;;;3.47;2.30;;;;;;;;;;4918329;28;20723;-83
2021/03/29 07:35:21;;;;;;;4.23;2.43;;;;;;;;;;4907606;29;20239;-80
2021/03/29 07:37:57;;;;;;;2.30;2.10;;;;;;;;;;4894512;29;20242;-81
2021/03/29 07:40:39;;;;;;;4.50;1.90;;;;;;;;;;4921503;28;20246;-81
2021/03/29 07:43:08;;;;;;;4.43;2.10;;;;;;;;;;4907800;29;20268;-81
2021/03/29 07:45:42;;;;;;;3.43;2.50;;;;;;;;;;4890141;29;20298;-81
2021/03/29 07:48:16;;;;;;;2.60;1.83;;;;;;;;;;4892713;29;20235;-82
2021/03/29 07:50:50;;;;;;;7.57;2.50;;;;;;;;;;4924532;28;20629;-80
2021/03/29 07:53:22;;;;;;;2.93;2.03;;;;;;;;;;4907243;28;20221;-82
2021/03/29 07:55:52;;;;;;;4.30;2.23;;;;;;;;;;4894852;28;20710;-81
2021/03/29 07:58:20;;;;;;;3.40;2.20;;;;;;;;;;4893690;29;20236;-81
2021/03/29 08:01:01;;;;;;;4.43;1.97;;;;;;;;;;4909684;29;20247;-81
2021/03/29 08:03:59;;;;;;;4.80;2.30;;;;;;;;;;4896333;29;20243;-81
2021/03/29 08:06:40;;;;;;;3.63;2.17;;;;;;;;;;4872414;29;20246;-80
2021/03/29 08:09:10;;;;;;;3.80;2.20;;;;;;;;;;4893688;29;20717;-82
2021/03/29 08:11:53;;;;;;;4.37;1.93;;;;;;;;;;4878750;29;20233;-83
2021/03/29 08:14:31;;;;;;;2.63;1.80;;;;;;;;;;4893111;29;20244;-80
2021/03/29 08:17:32;;;;;;;3.30;2.30;;;;;;;;;;4906952;29;20228;-81
2021/03/29 08:20:09;;;;;;;3.20;2.17;;;;;;;;;;4891080;29;20646;-81
2021/03/29 08:22:37;;;;;;;3.43;2.20;;;;;;;;;;4901856;29;20721;-81
2021/03/29 08:25:05;;;;;;;4.40;2.00;;;;;;;;;;4911231;28;20728;-81
2021/03/29 08:27:34;;;;;;;6.53;2.27;;;;;;;;;;4899497;29;20236;-82
2021/03/29 08:30:12;;;;;;;4.27;2.03;;;;;;;;;;4912327;29;20259;-81
2021/03/29 08:32:40;;;;;;;4.10;2.27;;;;;;;;;;4895876;28;20242;-81
2021/03/29 08:35:10;;;;;;;3.70;2.10;;;;;;;;;;4910685;29;20250;-82
2021/03/29 08:37:39;;;;;;;2.37;2.10;;;;;;;;;;4921750;28;20258;-81
2021/03/29 08:40:12;;;;;;;3.37;1.93;;;;;;;;;;4894491;29;20232;-81
2021/03/29 08:42:41;;;;;;;2.90;1.70;;;;;;;;;;4927243;28;20236;-82
2021/03/29 08:45:10;;;;;;;2.70;1.83;;;;;;;;;;4923594;28;20225;-82
2021/03/29 08:47:41;;;;;;;3.20;2.30;;;;;;;;;;4893761;28;20275;-80
2021/03/29 08:50:11;;;;;;;3.70;2.10;;;;;;;;;;4911300;28;20236;-80
2021/03/29 08:52:41;;;;;;;3.97;2.10;;;;;;;;;;4911545;28;20219;-80
2021/03/29 08:55:10;;;;;;;2.70;2.10;;;;;;;;;;4934324;29;20224;-80
2021/03/29 08:57:38;;;;;;;3.90;2.27;;;;;;;;;;4930002;29;20212;-82
2021/03/29 09:00:09;;;;;;;3.00;2.10;;;;;;;;;;4933504;29;20226;-83
2021/03/29 09:02:37;;;;;;;3.90;2.07;;;;;;;;;;4919544;28;20244;-83
2021/03/29 09:05:06;;;;;;;2.63;2.20;;;;;;;;;;4932456;28;20231;-81
2021/03/29 09:07:38;;;;;;;4.70;2.30;;;;;;;;;;4906232;29;20247;-81
2021/03/29 09:10:18;;;;;;;3.57;2.10;;;;;;;;;;4905978;29;20243;-81
2021/03/29 09:12:53;;;;;;;5.13;2.43;;;;;;;;;;4922346;29;20236;-81
2021/03/29 09:15:21;;;;;;;3.80;2.20;;;;;;;;;;4919897;29;20246;-81
2021/03/29 09:17:57;;;;;;;4.70;2.83;;;;;;;;;;4898956;29;20243;-82
2021/03/29 09:20:26;;;;;;;3.33;2.57;;;;;;;;;;4916206;28;20220;-84
2021/03/29 09:22:55;;;;;;;4.60;2.10;;;;;;;;;;4895965;28;20227;-83
2021/03/29 09:25:24;;;;;;;3.57;2.20;;;;;;;;;;4909970;28;20235;-82
2021/03/29 09:28:07;;;;;;;5.63;2.50;;;;;;;;;;4893872;28;20235;-85
2021/03/29 09:30:35;;;;;;;4.23;2.67;;;;;;;;;;4904393;28;20228;-85
2021/03/29 09:33:03;;;;;;;3.20;2.13;;;;;;;;;;4894433;29;20232;-83
2021/03/29 09:35:31;;;;;;;3.47;2.70;;;;;;;;;;4911745;28;20232;-84
2021/03/29 09:37:59;;;;;;;4.43;2.33;;;;;;;;;;4915560;28;20228;-84
2021/03/29 09:40:36;;;;;;;5.00;2.57;;;;;;;;;;4894618;29;20231;-81
2021/03/29 09:43:04;;;;;;;8.03;2.80;;;;;;;;;;4893672;29;20240;-83
2021/03/29 09:45:33;;;;;;;4.57;2.60;;;;;;;;;;4909270;29;20239;-81
2021/03/29 09:48:03;;;;;;;4.97;2.50;;;;;;;;;;4910609;29;20237;-81
2021/03/29 09:50:32;;;;;;;7.33;2.70;;;;;;;;;;4895164;29;20229;-82
2021/03/29 09:53:12;;;;;;;5.47;2.60;;;;;;;;;;4898739;29;20236;-81
2021/03/29 09:55:45;;;;;;;4.70;2.80;;;;;;;;;;4907354;29;20357;-82
2021/03/29 09:58:20;;;;;;;4.40;2.87;;;;;;;;;;4893563;29;20239;-82
2021/03/29 10:00:48;;;;;;;3.47;2.50;;;;;;;;;;4917999;28;20228;-80
2021/03/29 10:03:17;;;;;;;3.77;2.67;;;;;;;;;;4912946;28;20255;-81
2021/03/29 10:05:46;;;;;;;3.50;2.17;;;;;;;;;;4905524;29;20266;-80
2021/03/29 10:08:25;;;;;;;3.83;2.17;;;;;;;;;;4906519;29;20232;-79
2021/03/29 10:11:04;;;;;;;3.17;2.73;;;;;;;;;;4895831;29;20225;-80
2021/03/29 10:13:33;;;;;;;3.53;2.77;;;;;;;;;;4908177;29;20607;-79
2021/03/29 10:16:21;;;;;;;8.97;3.10;;;;;;;;;;4909662;28;20623;-79
2021/03/29 10:19:09;;;;;;;4.33;2.67;;;;;;;;;;4899666;29;20238;-81
2021/03/29 10:22:02;;;;;;;2.77;2.43;;;;;;;;;;4919734;28;20231;-80
2021/03/29 10:24:31;;;;;;;3.90;3.10;;;;;;;;;;4912996;28;20232;-79
2021/03/29 10:27:00;;;;;;;4.20;2.70;;;;;;;;;;4889014;28;20231;-79
2021/03/29 10:29:30;;;;;;;4.40;2.80;;;;;;;;;;4925400;28;20224;-78
2021/03/29 10:31:57;;;;;;;4.87;2.80;;;;;;;;;;4896833;29;20236;-79
2021/03/29 10:34:34;;;;;;;4.23;2.90;;;;;;;;;;4899451;28;20227;-79
2021/03/29 10:37:02;;;;;;;5.13;3.70;;;;;;;;;;4904668;29;20244;-79
2021/03/29 10:39:30;;;;;;;4.57;3.35;;;;;;;;;;4902294;29;20602;-78
2021/03/29 10:41:58;;;;;;;6.05;3.38;;;;;;;;;;4864726;28;20251;-79
2021/03/29 10:44:25;;;;;;;4.85;3.38;;;;;;;;;;4904063;29;20696;-79
2021/03/29 10:46:53;;;;;;;5.03;3.38;;;;;;;;;;4916277;28;20228;-79
2021/03/29 10:49:21;;;;;;;4.20;2.80;;;;;;;;;;4916152;29;20232;-80
2021/03/29 10:51:48;;;;;;;2.67;2.47;;;;;;;;;;4899077;28;20232;-78
2021/03/29 10:54:16;;;;;;;5.30;3.17;;;;;;;;;;4903908;29;20224;-76
2021/03/29 10:56:44;;;;;;;4.60;2.88;;;;;;;;;;4926434;28;20244;-77
2021/03/29 10:59:12;;;;;;;3.60;3.30;;;;;;;;;;4914229;29;20241;-77
2021/03/29 11:01:40;;;;;;;3.70;3.08;;;;;;;;;;4911043;28;20584;-77
2021/03/29 11:04:08;;;;;;;3.17;2.88;;;;;;;;;;4920800;28;20255;-79
2021/03/29 11:06:35;;;;;;;4.00;3.10;;;;;;;;;;4910120;28;20236;-77
2021/03/29 11:09:03;;;;;;;3.42;2.80;;;;;;;;;;4913825;28;20255;-78
2021/03/29 11:11:30;;;;;;;4.95;3.08;;;;;;;;;;4915242;29;20236;-77
2021/03/29 11:13:59;;;;;;;3.45;3.15;;;;;;;;;;4911939;28;20235;-78
2021/03/29 11:16:27;;;;;;;3.63;3.05;;;;;;;;;;4899521;29;20255;-77
2021/03/29 11:18:54;;;;;;;3.75;3.00;;;;;;;;;;4906643;28;20232;-77
2021/03/29 11:21:23;;;;;;;3.05;2.67;;;;;;;;;;4900298;29;20236;-77
2021/03/29 11:23:51;;;;;;;6.35;3.00;;;;;;;;;;4923303;28;20232;-77
2021/03/29 11:26:18;;;;;;;2.83;2.60;;;;;;;;;;4906357;28;20239;-78
2021/03/29 11:28:46;;;;;;;4.75;2.88;;;;;;;;;;4907560;28;20737;-78
2021/03/29 11:31:15;;;;;;;4.07;3.10;;;;;;;;;;4910891;28;20231;-78
2021/03/29 11:33:42;;;;;;;3.47;3.17;;;;;;;;;;4921508;28;20232;-79
2021/03/29 11:36:10;;;;;;;3.20;2.90;;;;;;;;;;4891052;29;20240;-79
2021/03/29 11:38:39;;;;;;;3.90;2.83;;;;;;;;;;4903665;28;20229;-79
2021/03/29 11:41:07;;;;;;;4.10;2.90;;;;;;;;;;4909669;28;20242;-79
2021/03/29 11:43:36;;;;;;;3.20;2.90;;;;;;;;;;4920745;28;20313;-79
2021/03/29 11:46:03;;;;;;;3.17;2.63;;;;;;;;;;4910421;28;20232;-79
2021/03/29 11:48:36;;;;;;;3.08;2.63;;;;;;;;;;4909156;28;20243;-79
2021/03/29 11:51:05;;;;;;;4.82;2.65;;;;;;;;;;4887632;29;20240;-79
2021/03/29 11:53:34;;;;;;;4.75;2.75;;;;;;;;;;4890838;29;20228;-78
2021/03/29 11:56:04;;;;;;;4.25;2.85;;;;;;;;;;4930568;28;20240;-79
2021/03/29 11:58:31;;;;;;;3.03;2.72;;;;;;;;;;4902212;29;20231;-78
2021/03/29 12:01:02;;;;;;;3.63;2.83;;;;;;;;;;4912268;29;20605;-78
2021/03/29 12:03:34;;;;;;;3.45;2.78;;;;;;;;;;4917503;28;20228;-78
2021/03/29 12:06:07;;;;;;;3.90;2.80;;;;;;;;;;4898705;29;20236;-78
2021/03/29 12:08:40;;;;;;;4.53;2.90;;;;;;;;;;4923381;29;20243;-78
2021/03/29 12:13:55;;;;;;;3.83;2.70;;;;;;;;;;4942373;28;20239;-78
2021/03/29 12:16:24;;;;;;;3.38;3.00;;;;;;;;;;4913615;29;20224;-78
2021/03/29 12:18:55;;;;;;;3.10;2.60;;;;;;;;;;4926365;28;20218;-78
2021/03/29 12:21:26;;;;;;;3.58;2.40;;;;;;;;;;4929589;29;20232;-78
2021/03/29 12:23:58;;;;;;;3.13;2.70;;;;;;;;;;4902517;28;20235;-78
2021/03/29 12:26:27;;;;;;;4.15;3.20;;;;;;;;;;4923496;28;20235;-78
2021/03/29 12:28:55;;;;;;;3.65;2.78;;;;;;;;;;4903234;28;20227;-78
2021/03/29 12:31:23;;;;;;;2.97;2.70;;;;;;;;;;4905304;29;20237;-78
2021/03/29 12:33:51;;;;;;;4.78;2.80;;;;;;;;;;4905896;28;20224;-78
2021/03/29 12:36:19;;;;;;;3.53;3.22;;;;;;;;;;4917437;28;20243;-78
2021/03/29 12:38:54;;;;;;;4.05;2.90;;;;;;;;;;4878716;29;20237;-78
2021/03/29 12:41:23;;;;;;;2.90;2.70;;;;;;;;;;4911787;28;20231;-78
2021/03/29 12:43:57;;;;;;;5.05;3.10;;;;;;;;;;4894084;28;20250;-78
2021/03/29 12:46:25;;;;;;;2.97;2.65;;;;;;;;;;4908592;28;20240;-77
2021/03/29 12:48:52;;;;;;;3.25;2.95;;;;;;;;;;4946019;29;20230;-78
2021/03/29 12:51:20;;;;;;;4.40;2.72;;;;;;;;;;4930646;28;20208;-78
2021/03/29 12:53:50;;;;;;;3.78;2.60;;;;;;;;;;4937794;28;20222;-78
2021/03/29 12:56:17;;;;;;;6.07;3.05;;;;;;;;;;4906499;29;20691;-78
2021/03/29 12:58:45;;;;;;;3.45;3.15;;;;;;;;;;4903055;28;20232;-78
2021/03/29 13:01:13;;;;;;;5.47;3.13;;;;;;;;;;4882831;29;20232;-78
2021/03/29 13:03:43;;;;;;;4.57;3.20;;;;;;;;;;4919897;29;20224;-78
2021/03/29 13:06:16;;;;;;;5.85;3.15;;;;;;;;;;4905891;29;20240;-78
2021/03/29 13:08:44;;;;;;;3.63;3.30;;;;;;;;;;4902849;28;20615;-78
2021/03/29 13:11:23;;;;;;;4.22;3.17;;;;;;;;;;4913891;28;20716;-78
2021/03/29 13:13:50;;;;;;;3.78;3.17;;;;;;;;;;4926555;28;20223;-78
2021/03/29 13:16:18;;;;;;;4.80;3.00;;;;;;;;;;4908671;29;20239;-78
2021/03/29 13:18:46;;;;;;;3.60;3.30;;;;;;;;;;4913843;28;20223;-78
2021/03/29 13:21:14;;;;;;;4.88;3.75;;;;;;;;;;4896627;29;20234;-78
2021/03/29 13:23:41;;;;;;;4.18;3.25;;;;;;;;;;4915665;29;20231;-78
2021/03/29 13:26:14;;;;;;;4.10;3.10;;;;;;;;;;4900456;29;20236;-79
2021/03/29 13:28:44;;;;;;;4.05;3.20;;;;;;;;;;4905320;29;20220;-79
2021/03/29 13:31:11;;;;;;;3.47;3.03;;;;;;;;;;4906336;29;20697;-78
2021/03/29 13:33:39;;;;;;;6.47;3.25;;;;;;;;;;4904864;28;20254;-79
2021/03/29 13:36:07;;;;;;;3.05;2.75;;;;;;;;;;4918818;28;20240;-79
2021/03/29 13:38:35;;;;;;;3.55;2.80;;;;;;;;;;4912899;29;20224;-79
2021/03/29 13:41:05;;;;;;;3.38;3.08;;;;;;;;;;4936215;28;20232;-79
2021/03/29 13:43:37;;;;;;;5.47;3.47;;;;;;;;;;4914876;29;20239;-78
2021/03/29 13:46:07;;;;;;;3.10;2.90;;;;;;;;;;4899218;29;20232;-78
2021/03/29 13:48:35;;;;;;;3.90;2.97;;;;;;;;;;4903958;29;20248;-78
2021/03/29 13:51:07;;;;;;;3.53;3.22;;;;;;;;;;4913707;29;20236;-78
2021/03/29 13:53:44;;;;;;;4.30;3.40;;;;;;;;;;4907215;28;20236;-78
2021/03/29 13:56:11;;;;;;;3.03;2.83;;;;;;;;;;4873798;29;20246;-79
2021/03/29 13:58:39;;;;;;;3.22;2.92;;;;;;;;;;4896253;28;20742;-78
2021/03/29 14:01:11;;;;;;;3.65;2.95;;;;;;;;;;4930161;28;20231;-78
2021/03/29 14:03:42;;;;;;;3.65;2.75;;;;;;;;;;4905177;28;20224;-78
2021/03/29 14:06:10;;;;;;;3.42;2.95;;;;;;;;;;4880386;29;20251;-78
2021/03/29 14:08:38;;;;;;;6.40;2.92;;;;;;;;;;4922891;28;20231;-78
2021/03/29 14:11:06;;;;;;;4.25;3.15;;;;;;;;;;4912858;29;20625;-78
2021/03/29 14:13:34;;;;;;;4.00;3.00;;;;;;;;;;4938191;28;20237;-79
2021/03/29 14:16:03;;;;;;;4.15;3.13;;;;;;;;;;4925511;28;20236;-79
2021/03/29 14:18:31;;;;;;;3.35;3.03;;;;;;;;;;4910134;28;20232;-79
2021/03/29 14:20:59;;;;;;;3.55;2.97;;;;;;;;;;4907924;28;20235;-79
2021/03/29 14:23:27;;;;;;;4.05;3.15;;;;;;;;;;4907101;29;20609;-78
2021/03/29 14:25:54;;;;;;;5.38;2.67;;;;;;;;;;4891514;28;20685;-79
2021/03/29 14:28:22;;;;;;;3.53;2.88;;;;;;;;;;4909443;29;20714;-79
2021/03/29 14:30:50;;;;;;;4.05;3.60;;;;;;;;;;4923189;28;20413;-79
2021/03/29 14:33:19;;;;;;;5.65;3.08;;;;;;;;;;4922055;28;20231;-79
2021/03/29 14:35:49;;;;;;;3.25;2.80;;;;;;;;;;4908977;29;20232;-80
2021/03/29 14:38:29;;;;;;;2.92;2.63;;;;;;;;;;4909753;29;20725;-79
2021/03/29 14:41:22;;;;;;;3.80;2.83;;;;;;;;;;4908646;28;20721;-79
2021/03/29 14:44:05;;;;;;;2.75;2.55;;;;;;;;;;4892421;28;20235;-79
2021/03/29 14:46:33;;;;;;;3.53;2.92;;;;;;;;;;4908842;28;20629;-79
2021/03/29 14:49:00;;;;;;;7.90;3.00;;;;;;;;;;4905696;29;20235;-79
2021/03/29 14:51:30;;;;;;;4.28;2.88;;;;;;;;;;4910228;29;20303;-79
2021/03/29 14:53:58;;;;;;;4.22;2.90;;;;;;;;;;4919874;28;20243;-79
2021/03/29 14:56:26;;;;;;;3.10;2.75;;;;;;;;;;4912444;29;20235;-79
2021/03/29 14:58:54;;;;;;;3.15;2.70;;;;;;;;;;4891119;28;20224;-79
2021/03/29 15:01:23;;;;;;;3.13;2.67;;;;;;;;;;4912675;29;20721;-79
2021/03/29 15:03:53;;;;;;;3.03;2.63;;;;;;;;;;4898638;29;20228;-79
2021/03/29 15:09:04;;;;;;;2.30;2.10;;;;;;;;;;4908901;29;20567;-79
2021/03/29 15:11:32;;;;;;;3.10;2.47;;;;;;;;;;4900663;29;20231;-79
2021/03/29 15:14:19;;;;;;;4.45;2.75;;;;;;;;;;4907020;29;20529;-79